Skip Navigation Links
NOAA logo - Click to go to the NOAA homepage
NOAA's National Weather Service
Alaska Aviation Weather Unit
  NWS logo - Click to go to the NWS homepage
Left Navbar Graphic     02 AKDT = 10 GMT

   
NOAA is celebrating 200 years of science, service, and stewardship. Visit the NOAA 200th celebration Web site to learn more.
USA.gov is the U.S. Government's official Web portal to all Federal, state and local government Web resources and services.
Facebook
NWS on Facebook

AAWU Home :: Display TAF Add Bookmark
TAF PAEN 270533Z 2706/2806 02009KT P6SM FEW100
     FM272200 VRB04KT P6SM BKN060 OVC100=
METAR PAEN 270453Z 34006KT 10SM CLR M06/M11 A2961=

METAR PAEN 270553Z 33005KT 10SM CLR M07/M11 A2961=

METAR PAEN 270653Z 02003KT 10SM CLR M08/M11 A2959=

METAR PAEN 270753Z 00000KT 10SM CLR M10/M12 A2959=

METAR PAEN 270853Z 01005KT 10SM CLR M12/M13 A2957=

METAR PAEN 270953Z AUTO 36005KT 10SM CLR M11/M13 A2957=


NOAA's National Weather Service
Alaska Aviation Weather Unit
6930 Sand Lake Road
Anchorage, AK 99502-1845
Disclaimer
Credits
Glossary
Privacy Policy
About Us
Career Opportunities
Contact AAWU Internet Services Site last modified: April, 17th 2012